METAR AND TAF INFORMATION
METAR FOR SVJC
ADDS - METARS form results

(1954 UTC 22 January 2020)
Data provider http://aviationweather.gov/metar/data/
 
Forecast for: SVJC (PARAGUANA/JOSEFA, VE)
Text: TAF SVJC 221600Z 2212/2312 02005KT 9999 FEW013 TX30/19Z TN23/08Z
Forecast period: 1200 UTC 22 January 2020 to 1200 UTC 23 January 2020
Forecast type: FROM: standard forecast or significant change
Winds: from the NNE (20 degrees) at 6 MPH (5 knots; 2.6 m/s)
Visibility: 6 or more miles 10+ km)
Ceiling: at least 12,000 feet AGL
Clouds: few clouds at 1300 feet AGL
Weather: no significant weather forecast for this period
Text: BECMG 2212/2216 00000KT 9999 SCT016
Forecast period: 1200 UTC 22 January 2020 to 1200 UTC 23 January 2020
Forecast type: BECOMING: Conditions expected to become as follows by 1600 UTC 22 January 2020
Winds: calm
Visibility: 6 or more miles 10+ km)
Ceiling: at least 12,000 feet AGL
Clouds: scattered clouds at 1600 feet AGL
Weather: no significant weather forecast for this period

 AIRPORT MAP

 RUNWAY INFORMATION
Runway 09 Runway length 9186 ft Runway width 148 ft
Runway elevation 75 ft Runway displaced threshold 0 ft Runway heading 85
Runway 27 Runway length 9186 ft Runway width 148 ft
Runway elevation 75 ft Runway displaced threshold 0 ft Runway heading 265

 AIRPORT FREQUENCIES
Type TWR Name TWR Frequency 118.45 MHZ

 AIRPORT NEAR NAVIGATION AIDS
Type VOR-DME Name Paraguana Frequency 113600 KHZ
Type NDB Name Paraguana Frequency 385 KHZ